createdAt,value
2022-10-14T00:00:49.205Z,17.35
2022-10-14T00:03:20.235Z,18.27
2022-10-14T00:05:52.080Z,16.10
2022-10-14T00:08:21.960Z,18.25
2022-10-14T00:10:56.080Z,17.48
2022-10-14T00:13:34.844Z,19.42
2022-10-14T00:16:07.248Z,19.62
2022-10-14T00:18:37.751Z,17.98
2022-10-14T00:21:07.279Z,17.90
2022-10-14T00:23:39.616Z,16.65
2022-10-14T00:26:18.872Z,17.25
2022-10-14T00:28:50.227Z,16.58
2022-10-14T00:31:20.383Z,17.90
2022-10-14T00:33:52.989Z,17.17
2022-10-14T00:36:25.051Z,19.17
2022-10-14T00:38:59.343Z,17.42
2022-10-14T00:41:32.825Z,19.67
2022-10-14T00:44:17.027Z,17.30
2022-10-14T00:46:50.888Z,15.95
2022-10-14T00:49:29.831Z,18.20
2022-10-14T00:52:04.516Z,16.10
2022-10-14T00:54:41.227Z,16.77
2022-10-14T00:57:12.642Z,19.45
2022-10-14T00:59:45.531Z,17.30
2022-10-14T01:02:15.635Z,18.30
2022-10-14T01:04:48.081Z,21.00
2022-10-14T01:07:36.056Z,15.48
2022-10-14T01:10:28.675Z,17.10
2022-10-14T01:13:03.159Z,16.42
2022-10-14T01:15:39.813Z,16.33
2022-10-14T01:18:50.054Z,14.93
2022-10-14T01:21:26.343Z,13.45
2022-10-14T01:24:14.134Z,16.58
2022-10-14T01:27:16.691Z,16.12
2022-10-14T01:29:57.651Z,16.12
2022-10-14T01:32:58.426Z,16.15
2022-10-14T01:35:45.123Z,15.30
2022-10-14T01:38:25.816Z,17.85
2022-10-14T01:41:06.287Z,18.25
2022-10-14T01:43:40.965Z,17.40
2022-10-14T01:46:15.029Z,18.95
2022-10-14T01:48:49.954Z,16.58
2022-10-14T01:51:28.916Z,15.73
2022-10-14T01:54:11.605Z,18.13
2022-10-14T01:56:43.647Z,17.20
2022-10-14T01:59:17.467Z,17.27
2022-10-14T02:01:47.026Z,16.33
2022-10-14T02:04:24.618Z,17.25
2022-10-14T02:07:30.518Z,16.98
2022-10-14T02:10:30.148Z,14.85
2022-10-14T02:13:31.346Z,16.27
2022-10-14T02:16:10.830Z,13.70
2022-10-14T02:18:43.630Z,16.62
2022-10-14T02:21:41.346Z,14.80
2022-10-14T02:24:44.058Z,20.95
2022-10-14T02:27:15.907Z,19.27
2022-10-14T02:29:46.478Z,17.40
2022-10-14T02:34:47.768Z,21.52
2022-10-14T02:37:21.013Z,18.08
2022-10-14T02:40:06.079Z,16.00
2022-10-14T02:42:34.400Z,16.17
2022-10-14T02:45:06.862Z,16.52
2022-10-14T02:47:36.540Z,17.70
2022-10-14T02:50:04.876Z,17.52
2022-10-14T02:52:34.317Z,16.83
2022-10-14T02:55:02.773Z,15.70
2022-10-14T02:57:31.190Z,13.80
2022-10-14T02:59:59.663Z,18.27
2022-10-14T03:02:29.087Z,15.32
2022-10-14T03:04:59.291Z,19.60
2022-10-14T03:07:27.514Z,18.40
2022-10-14T03:09:59.088Z,18.00
2022-10-14T03:12:27.103Z,20.12
2022-10-14T03:15:00.696Z,15.73
2022-10-14T03:17:30.841Z,19.50
2022-10-14T03:19:59.595Z,20.02
2022-10-14T03:22:29.832Z,16.00
2022-10-14T03:25:03.334Z,19.23
2022-10-14T03:27:33.512Z,15.57
2022-10-14T03:30:03.895Z,19.10
2022-10-14T03:32:37.382Z,20.17
2022-10-14T03:35:10.412Z,19.23
2022-10-14T03:37:39.427Z,18.87
2022-10-14T03:40:09.009Z,15.32
2022-10-14T03:42:38.082Z,16.83
2022-10-14T03:45:08.666Z,15.32
2022-10-14T03:47:37.934Z,19.58
2022-10-14T03:50:09.096Z,15.40
2022-10-14T03:52:44.835Z,14.55
2022-10-14T03:55:16.370Z,13.62
2022-10-14T03:57:45.799Z,17.40
2022-10-14T04:00:14.906Z,15.70
2022-10-14T04:02:43.838Z,16.73
2022-10-14T04:05:14.171Z,17.52
2022-10-14T04:07:43.419Z,15.07
2022-10-14T04:10:13.508Z,17.67
2022-10-14T04:12:46.869Z,20.70
2022-10-14T04:15:25.522Z,20.08
2022-10-14T04:17:56.548Z,17.95
2022-10-14T04:20:25.074Z,21.12
2022-10-14T04:22:53.453Z,18.60
2022-10-14T04:25:27.303Z,17.30
2022-10-14T04:27:56.087Z,18.67
2022-10-14T04:30:27.939Z,16.15
2022-10-14T04:32:56.857Z,19.30
2022-10-14T04:35:25.253Z,19.15
2022-10-14T04:37:57.443Z,18.45
2022-10-14T04:40:26.491Z,15.43
2022-10-14T04:42:56.359Z,15.18
2022-10-14T04:45:25.969Z,15.57
2022-10-14T04:47:54.746Z,20.20
2022-10-14T04:50:24.768Z,20.00
2022-10-14T04:53:13.296Z,20.12
2022-10-14T04:55:46.939Z,14.63
2022-10-14T04:58:16.040Z,17.52
2022-10-14T05:00:44.930Z,15.18
2022-10-14T05:03:19.779Z,16.60
2022-10-14T05:05:48.632Z,21.85
2022-10-14T05:08:20.186Z,20.17
2022-10-14T05:10:49.225Z,17.85
2022-10-14T05:13:22.350Z,19.50
2022-10-14T05:15:53.072Z,19.33
2022-10-14T05:18:22.868Z,16.40
2022-10-14T05:20:59.234Z,18.48
2022-10-14T05:23:31.003Z,17.60
2022-10-14T05:25:59.678Z,16.55
2022-10-14T05:28:27.309Z,23.90
2022-10-14T05:30:56.780Z,22.95
2022-10-14T05:33:25.157Z,20.98
2022-10-14T05:35:59.617Z,22.10
2022-10-14T05:38:31.695Z,17.55
2022-10-14T05:40:59.833Z,18.02
2022-10-14T05:43:32.178Z,20.77
2022-10-14T05:46:01.571Z,23.15
2022-10-14T05:48:29.920Z,21.17
2022-10-14T05:51:02.299Z,23.27
2022-10-14T05:53:32.652Z,23.10
2022-10-14T05:56:05.732Z,15.20
2022-10-14T05:58:34.803Z,15.40
2022-10-14T06:01:06.807Z,18.17
2022-10-14T06:03:34.720Z,20.02
2022-10-14T06:06:02.851Z,24.05
2022-10-14T06:08:31.122Z,27.35
2022-10-14T06:11:03.170Z,23.30
2022-10-14T06:13:31.279Z,22.45
2022-10-14T06:16:07.804Z,26.20
2022-10-14T06:18:36.622Z,24.98
2022-10-14T06:21:07.629Z,22.37
2022-10-14T06:23:35.501Z,26.87
2022-10-14T06:26:06.869Z,22.52
2022-10-14T06:28:35.034Z,23.02
2022-10-14T06:31:03.199Z,25.15
2022-10-14T06:33:31.769Z,22.85
2022-10-14T06:36:02.723Z,27.35
2022-10-14T06:38:30.678Z,23.77
2022-10-14T06:40:58.825Z,26.77
2022-10-14T06:43:27.949Z,31.23
2022-10-14T06:45:57.714Z,27.37
2022-10-14T06:48:25.417Z,28.42
2022-10-14T06:50:53.850Z,26.45
2022-10-14T06:53:21.459Z,24.80
2022-10-14T06:55:48.924Z,22.62
2022-10-14T06:58:16.741Z,25.05
2022-10-14T07:00:47.945Z,27.83
2022-10-14T07:03:15.808Z,21.50
2022-10-14T07:05:44.133Z,24.08
2022-10-14T07:08:15.244Z,25.67
2022-10-14T07:10:44.033Z,21.52
2022-10-14T07:13:12.303Z,27.48
2022-10-14T07:15:40.392Z,22.85
2022-10-14T07:18:08.648Z,30.05
2022-10-14T07:20:36.122Z,23.92
2022-10-14T07:23:04.492Z,23.62
2022-10-14T07:25:33.136Z,27.02
2022-10-14T07:28:00.722Z,25.37
2022-10-14T07:30:28.498Z,27.62
2022-10-14T07:32:56.990Z,32.10
2022-10-14T07:35:26.789Z,26.23
2022-10-14T07:37:54.979Z,30.55
2022-10-14T07:40:23.106Z,26.08
2022-10-14T07:42:51.357Z,26.40
2022-10-14T07:45:21.283Z,28.40
2022-10-14T07:47:50.574Z,26.45
2022-10-14T07:50:18.684Z,25.88
2022-10-14T07:52:46.630Z,30.12
2022-10-14T07:55:14.630Z,23.87
2022-10-14T07:57:42.239Z,28.25
2022-10-14T08:00:10.074Z,28.48
2022-10-14T08:02:39.301Z,29.20
2022-10-14T08:05:32.868Z,25.37
2022-10-14T08:07:55.115Z,22.25
2022-10-14T08:10:23.212Z,20.80
2022-10-14T08:12:52.027Z,17.77
2022-10-14T08:15:20.502Z,25.27
2022-10-14T08:17:48.479Z,21.55
2022-10-14T08:20:16.066Z,23.92
2022-10-14T08:22:44.179Z,22.92
2022-10-14T08:25:12.560Z,22.50
2022-10-14T08:27:41.162Z,24.20
2022-10-14T08:30:11.437Z,25.95
2022-10-14T08:32:40.190Z,25.02
2022-10-14T08:35:08.830Z,21.62
2022-10-14T08:37:36.897Z,19.62
2022-10-14T08:40:05.788Z,21.80
2022-10-14T08:42:36.153Z,23.10
2022-10-14T08:45:10.269Z,17.90
2022-10-14T08:47:43.045Z,19.42
2022-10-14T08:50:26.888Z,18.90
2022-10-14T08:52:56.777Z,24.27
2022-10-14T08:55:33.125Z,21.23
2022-10-14T08:58:10.386Z,18.87
2022-10-14T09:00:42.275Z,22.80
2022-10-14T09:03:21.042Z,20.92
2022-10-14T09:06:14.110Z,22.80
2022-10-14T09:08:48.094Z,23.95
2022-10-14T09:11:20.679Z,20.33
2022-10-14T09:13:59.980Z,24.58
2022-10-14T09:16:31.843Z,20.90
2022-10-14T09:19:06.365Z,20.55
2022-10-14T09:21:52.342Z,21.05
2022-10-14T09:24:24.115Z,23.05
2022-10-14T09:29:28.803Z,19.70
2022-10-14T09:32:01.751Z,28.10
2022-10-14T09:34:34.356Z,17.15
2022-10-14T09:37:28.738Z,17.90
2022-10-14T09:40:07.001Z,21.98
2022-10-14T09:42:59.324Z,19.02
2022-10-14T09:45:30.186Z,19.60
2022-10-14T09:48:04.152Z,22.55
2022-10-14T09:50:40.847Z,20.37
2022-10-14T09:53:16.905Z,17.17
2022-10-14T09:55:50.250Z,19.50
2022-10-14T09:58:21.082Z,21.85
2022-10-14T10:00:57.073Z,21.27
2022-10-14T10:03:35.685Z,17.83
2022-10-14T10:06:08.421Z,19.92
2022-10-14T10:08:43.061Z,21.55
2022-10-14T10:11:14.069Z,17.48
2022-10-14T10:13:46.459Z,22.00
2022-10-14T10:16:27.345Z,20.10
2022-10-14T10:18:57.283Z,23.00
2022-10-14T10:21:27.686Z,19.23
2022-10-14T10:24:00.935Z,19.10
2022-10-14T10:26:34.065Z,23.62
2022-10-14T10:29:04.289Z,20.33
2022-10-14T10:31:32.575Z,22.92
2022-10-14T10:34:30.161Z,22.40
2022-10-14T10:37:25.546Z,19.67
2022-10-14T10:40:18.703Z,22.55
2022-10-14T10:43:14.599Z,18.08
2022-10-14T10:46:04.710Z,18.73
2022-10-14T10:48:44.364Z,21.52
2022-10-14T10:51:41.043Z,19.90
2022-10-14T10:54:31.514Z,20.33
2022-10-14T10:57:04.262Z,22.67
2022-10-14T10:59:36.861Z,19.52
2022-10-14T11:02:33.981Z,16.55
2022-10-14T11:05:29.677Z,17.50
2022-10-14T11:08:54.445Z,17.83
2022-10-14T11:12:03.186Z,17.83
2022-10-14T11:14:40.047Z,19.73
2022-10-14T11:17:31.175Z,16.77
2022-10-14T11:20:12.618Z,17.35
2022-10-14T11:22:53.271Z,16.23
2022-10-14T11:25:49.494Z,16.77
2022-10-14T11:28:29.863Z,15.80
2022-10-14T11:31:26.834Z,16.75
2022-10-14T11:34:04.547Z,13.00
2022-10-14T11:36:38.316Z,16.12
2022-10-14T11:39:14.637Z,16.62
2022-10-14T11:42:24.802Z,18.83
2022-10-14T11:45:20.450Z,14.57
2022-10-14T11:48:02.403Z,18.08
2022-10-14T11:50:37.187Z,19.55
2022-10-14T11:53:13.732Z,19.75
2022-10-14T11:55:46.422Z,18.50
2022-10-14T11:58:17.878Z,20.45
2022-10-14T12:00:47.625Z,21.90
2022-10-14T12:03:43.907Z,21.25
2022-10-14T12:06:34.699Z,20.98
2022-10-14T12:09:20.142Z,23.38
2022-10-14T12:11:53.582Z,17.50
2022-10-14T12:14:35.388Z,22.23
2022-10-14T12:19:35.764Z,25.58
2022-10-14T12:22:19.260Z,22.33
2022-10-14T12:24:51.138Z,20.98
2022-10-14T12:27:20.317Z,22.60
2022-10-14T12:29:51.073Z,19.85
2022-10-14T12:32:24.871Z,21.00
2022-10-14T12:34:58.134Z,18.92
2022-10-14T12:37:32.544Z,24.25
2022-10-14T12:40:03.765Z,22.50
2022-10-14T12:43:14.051Z,24.73
2022-10-14T12:46:01.074Z,22.77
2022-10-14T12:48:34.192Z,28.12
2022-10-14T12:51:15.712Z,24.70
2022-10-14T12:54:06.366Z,23.12
2022-10-14T12:56:40.182Z,19.52
2022-10-14T12:59:28.714Z,24.08
2022-10-14T13:02:22.224Z,19.52
2022-10-14T13:04:52.699Z,21.00
2022-10-14T13:07:42.571Z,17.58
2022-10-14T13:10:41.865Z,23.52
2022-10-14T13:13:56.036Z,18.33
2022-10-14T13:16:23.675Z,21.58
2022-10-14T13:19:04.688Z,21.60
2022-10-14T13:21:35.455Z,21.33
2022-10-14T13:24:41.949Z,23.10
2022-10-14T13:27:15.664Z,21.55
2022-10-14T13:30:11.044Z,21.52
2022-10-14T13:32:49.408Z,20.45
2022-10-14T13:36:01.195Z,19.98
2022-10-14T13:38:31.800Z,21.67
2022-10-14T13:40:59.740Z,21.00
2022-10-14T13:43:37.872Z,23.00
2022-10-14T13:46:34.385Z,25.92
2022-10-14T13:49:07.775Z,22.02
2022-10-14T13:51:48.190Z,20.52
2022-10-14T13:54:24.430Z,20.77
2022-10-14T14:02:39.934Z,20.10
2022-10-14T14:05:15.288Z,20.25
2022-10-14T14:10:39.140Z,20.65
2022-10-14T14:13:14.664Z,19.35
2022-10-14T14:15:49.572Z,23.77
2022-10-14T14:18:43.365Z,22.00
2022-10-14T14:21:23.773Z,19.87
2022-10-14T14:24:00.276Z,20.75
2022-10-14T14:26:36.165Z,22.77
2022-10-14T14:29:15.475Z,20.27
2022-10-14T14:34:32.596Z,20.20
2022-10-14T14:37:32.001Z,22.70
2022-10-14T14:40:16.527Z,22.62
2022-10-14T14:42:48.134Z,21.55
2022-10-14T14:45:25.593Z,23.23
2022-10-14T14:47:57.365Z,19.45
2022-10-14T14:50:33.731Z,21.48
2022-10-14T14:53:04.544Z,20.67
2022-10-14T14:55:41.315Z,22.40
2022-10-14T14:58:26.674Z,20.50
2022-10-14T15:00:56.349Z,23.38
2022-10-14T15:03:26.706Z,21.55
2022-10-14T15:06:00.061Z,24.10
2022-10-14T15:08:38.163Z,21.20
2022-10-14T15:11:06.370Z,19.98
2022-10-14T15:13:43.675Z,20.98
2022-10-14T15:16:11.629Z,23.45
2022-10-14T15:18:42.662Z,21.80
2022-10-14T15:21:11.742Z,27.35
2022-10-14T15:23:48.386Z,24.55
2022-10-14T15:26:28.931Z,27.50
2022-10-14T15:29:11.808Z,25.87
2022-10-14T15:31:40.474Z,24.17
2022-10-14T15:34:22.010Z,28.20
2022-10-14T15:36:51.358Z,30.35
2022-10-14T15:39:21.928Z,33.87
2022-10-14T15:41:50.070Z,30.20
2022-10-14T15:44:18.133Z,28.83
2022-10-14T15:47:06.148Z,33.65
2022-10-14T15:49:39.074Z,29.02
2022-10-14T15:52:14.141Z,31.45
2022-10-14T15:54:42.350Z,35.03
2022-10-14T15:57:15.567Z,30.50
2022-10-14T15:59:46.452Z,33.35
2022-10-14T16:02:20.755Z,32.85
2022-10-14T16:05:18.769Z,27.80
2022-10-14T16:07:42.304Z,20.67
2022-10-14T16:10:15.460Z,28.02
2022-10-14T16:12:44.204Z,25.90
2022-10-14T16:15:30.604Z,27.33
2022-10-14T16:17:58.721Z,24.40
2022-10-14T16:20:28.120Z,24.02
2022-10-14T16:22:56.038Z,24.85
2022-10-14T16:25:33.679Z,27.10
2022-10-14T16:28:07.578Z,27.77
2022-10-14T16:30:42.002Z,26.92
2022-10-14T16:35:38.492Z,27.23
2022-10-14T16:38:06.465Z,40.28
2022-10-14T16:40:36.736Z,47.15
2022-10-14T16:43:09.657Z,43.83
2022-10-14T16:45:40.937Z,35.83
2022-10-14T16:48:10.425Z,36.13
2022-10-14T16:50:38.547Z,42.65
2022-10-14T16:53:27.686Z,34.58
2022-10-14T16:55:58.856Z,31.40
2022-10-14T16:58:29.805Z,33.70
2022-10-14T17:00:57.754Z,39.92
2022-10-14T17:03:25.658Z,31.85
2022-10-14T17:05:59.236Z,40.83
2022-10-14T17:08:27.588Z,38.30
2022-10-14T17:11:01.024Z,30.37
2022-10-14T17:13:29.497Z,31.00
2022-10-14T17:16:02.071Z,33.97
2022-10-14T17:18:34.574Z,33.17
2022-10-14T17:21:08.611Z,30.95
2022-10-14T17:23:39.251Z,39.83
2022-10-14T17:26:12.120Z,33.25
2022-10-14T17:28:41.781Z,31.58
2022-10-14T17:31:16.655Z,31.25
2022-10-14T17:33:46.904Z,29.23
2022-10-14T17:36:24.266Z,29.37
2022-10-14T17:38:52.454Z,34.55
2022-10-14T17:41:22.199Z,26.75
2022-10-14T17:43:52.519Z,30.70
2022-10-14T17:46:23.974Z,29.70
2022-10-14T17:48:54.325Z,34.13
2022-10-14T17:51:26.863Z,35.00
2022-10-14T17:54:01.112Z,41.30
2022-10-14T17:56:35.351Z,48.95
2022-10-14T17:59:07.688Z,60.65
2022-10-14T18:01:38.026Z,66.03
2022-10-14T18:04:24.837Z,58.85
2022-10-14T18:06:54.365Z,52.72
2022-10-14T18:09:22.938Z,58.72
2022-10-14T18:12:09.453Z,53.78
2022-10-14T18:14:40.771Z,56.95
2022-10-14T18:22:11.278Z,41.30
2022-10-14T18:24:39.905Z,50.25
2022-10-14T18:27:07.589Z,43.65
2022-10-14T18:29:35.780Z,47.28
2022-10-14T18:32:05.954Z,48.00
2022-10-14T18:34:34.276Z,51.20
2022-10-14T18:37:03.636Z,55.50
2022-10-14T18:39:31.611Z,60.38
2022-10-14T18:42:00.371Z,57.33
2022-10-14T18:44:36.821Z,62.13
2022-10-14T18:47:05.763Z,51.83
2022-10-14T18:49:39.826Z,49.40
2022-10-14T18:52:09.967Z,48.15
2022-10-14T18:54:38.589Z,49.53
2022-10-14T18:57:06.244Z,68.00
2022-10-14T18:59:36.237Z,49.08
2022-10-14T19:02:16.082Z,51.47
2022-10-14T19:04:44.539Z,46.20
2022-10-14T19:07:16.429Z,47.65
2022-10-14T19:09:45.128Z,46.47
2022-10-14T19:12:33.226Z,44.63
2022-10-14T19:15:03.269Z,47.10
2022-10-14T19:17:35.971Z,44.90
2022-10-14T19:20:05.669Z,46.60
2022-10-14T19:22:34.604Z,46.30
2022-10-14T19:25:04.471Z,56.05
2022-10-14T19:27:32.598Z,52.92
2022-10-14T19:30:01.571Z,44.75
2022-10-14T19:32:32.919Z,49.45
2022-10-14T19:35:02.207Z,59.33
2022-10-14T19:40:01.344Z,43.87
2022-10-14T19:42:29.492Z,47.28
2022-10-14T19:44:59.247Z,53.75
2022-10-14T19:47:27.430Z,56.65
2022-10-14T19:49:56.439Z,56.28
2022-10-14T19:52:31.388Z,56.45
2022-10-14T19:54:59.446Z,43.65
2022-10-14T19:57:27.135Z,43.25
2022-10-14T19:59:55.800Z,42.17
2022-10-14T20:02:24.417Z,45.72
2022-10-14T20:04:52.289Z,44.85
2022-10-14T20:07:22.848Z,47.38
2022-10-14T20:09:51.357Z,43.67
2022-10-14T20:12:22.428Z,42.55
2022-10-14T20:14:50.557Z,43.30
2022-10-14T20:19:57.561Z,41.08
2022-10-14T20:22:27.552Z,39.65
2022-10-14T20:25:00.435Z,41.30
2022-10-14T20:27:31.254Z,42.35
2022-10-14T20:30:02.858Z,39.90
2022-10-14T20:32:31.950Z,39.17
2022-10-14T20:35:01.814Z,40.60
2022-10-14T20:37:32.464Z,39.25
2022-10-14T20:40:02.270Z,43.20
2022-10-14T20:42:30.398Z,39.00
2022-10-14T20:44:58.765Z,33.47
2022-10-14T20:47:31.815Z,42.30
2022-10-14T20:49:59.648Z,44.40
2022-10-14T20:52:33.114Z,48.42
2022-10-14T20:55:00.952Z,43.38
2022-10-14T20:57:28.799Z,39.28
2022-10-14T20:59:58.402Z,35.97
2022-10-14T21:02:28.792Z,42.40
2022-10-14T21:04:56.326Z,40.53
2022-10-14T21:07:25.785Z,36.42
2022-10-14T21:09:54.128Z,32.17
2022-10-14T21:12:23.200Z,39.28
2022-10-14T21:14:51.951Z,39.05
2022-10-14T21:17:21.847Z,37.45
2022-10-14T21:19:49.567Z,39.33
2022-10-14T21:22:17.907Z,38.83
2022-10-14T21:24:45.427Z,37.58
2022-10-14T21:27:13.815Z,44.58
2022-10-14T21:29:42.926Z,35.30
2022-10-14T21:32:10.858Z,36.88
2022-10-14T21:34:39.190Z,36.47
2022-10-14T21:37:07.141Z,35.97
2022-10-14T21:39:34.782Z,36.53
2022-10-14T21:42:02.554Z,34.75
2022-10-14T21:44:30.826Z,40.00
2022-10-14T21:46:59.558Z,34.80
2022-10-14T21:49:27.616Z,35.60
2022-10-14T21:51:55.898Z,43.78
2022-10-14T21:54:24.859Z,30.10
2022-10-14T21:56:52.398Z,36.22
2022-10-14T21:59:21.678Z,37.28
2022-10-14T22:01:51.035Z,35.75
2022-10-14T22:04:22.419Z,38.20
2022-10-14T22:06:53.556Z,34.28
2022-10-14T22:09:25.546Z,34.35
2022-10-14T22:11:57.285Z,34.90
2022-10-14T22:14:27.490Z,31.20
2022-10-14T22:16:56.596Z,36.85
2022-10-14T22:19:30.452Z,36.22
2022-10-14T22:22:01.785Z,38.05
2022-10-14T22:24:31.430Z,37.58
2022-10-14T22:27:00.257Z,36.35
2022-10-14T22:29:29.852Z,34.45
2022-10-14T22:32:03.835Z,37.78
2022-10-14T22:34:35.563Z,31.10
2022-10-14T22:37:08.798Z,34.28
2022-10-14T22:39:38.497Z,35.30
2022-10-14T22:42:12.215Z,37.75
2022-10-14T22:44:43.309Z,33.33
2022-10-14T22:47:15.359Z,35.47
2022-10-14T22:49:46.356Z,39.78
2022-10-14T22:52:20.345Z,34.17
2022-10-14T22:54:50.239Z,37.50
2022-10-14T22:57:21.175Z,35.50
2022-10-14T22:59:51.908Z,36.00
2022-10-14T23:02:23.990Z,31.05
2022-10-14T23:04:53.307Z,33.00
2022-10-14T23:07:26.028Z,36.03
2022-10-14T23:09:55.898Z,32.08
2022-10-14T23:12:27.672Z,36.50
2022-10-14T23:14:59.755Z,34.45
2022-10-14T23:17:43.887Z,31.02
2022-10-14T23:20:13.345Z,32.95
2022-10-14T23:22:45.125Z,31.37
2022-10-14T23:25:15.661Z,31.95
2022-10-14T23:27:47.661Z,34.55
2022-10-14T23:30:17.266Z,32.42
2022-10-14T23:32:48.786Z,37.13
2022-10-14T23:35:22.396Z,34.00
2022-10-14T23:37:54.325Z,36.05
2022-10-14T23:40:23.767Z,34.80
2022-10-14T23:42:55.415Z,34.20
2022-10-14T23:45:26.067Z,35.10
2022-10-14T23:47:59.936Z,30.83
2022-10-14T23:50:28.937Z,34.03
2022-10-14T23:53:02.337Z,32.28
2022-10-14T23:55:31.867Z,33.90
2022-10-14T23:58:01.736Z,33.22
